Bement, Illinois
Current Conditions -  °F | °C
As of 1:54 PM on Monday 22 Dec 2014 (Local Time) from KDEC Reporting Station
Light Rain Light Rain  
Wind Chill: 37°   Ceiling: 500
Heat Index: 44°   Visibility: 4mi
Dew Point: 43°   Wind: 15mph
Humidity: 96%   Direction: 140°SE
Pressure: 29.65"   Gusts: NA
Location:  39.92°N, 88.57°W
Report Text: KDEC 221954Z 14013KT 4SM -RA BR OVC005 07/06 A2965 RMK AO2 SLP044 P0003 T00670061
Loading
Personal Weather Stations






























Interactive Weather Map New forecast layout! Learn more

10-Day Weather Forecast

Advertisements
Track Severe Weather on mobile